createdAt,value
2018-09-25T00:00:15.573Z,59.16
2018-09-25T00:01:15.560Z,58.65
2018-09-25T00:02:15.551Z,58.45
2018-09-25T00:03:15.562Z,58.36
2018-09-25T00:04:15.525Z,57.85
2018-09-25T00:05:15.515Z,57.75
2018-09-25T00:06:15.507Z,58.56
2018-09-25T00:07:15.495Z,58.58
2018-09-25T00:08:15.505Z,58.76
2018-09-25T00:09:15.475Z,58.38
2018-09-25T00:10:15.539Z,58.38
2018-09-25T00:11:15.449Z,58.78
2018-09-25T00:12:15.438Z,58.89
2018-09-25T00:13:15.452Z,59.09
2018-09-25T00:14:15.416Z,58.78
2018-09-25T00:15:15.404Z,58.69
2018-09-25T00:16:15.392Z,59.29
2018-09-25T00:17:15.381Z,58.89
2018-09-25T00:18:15.397Z,59.29
2018-09-25T00:19:15.361Z,60.10
2018-09-25T00:20:15.348Z,59.29
2018-09-25T00:21:15.336Z,58.78
2018-09-25T00:22:15.326Z,58.89
2018-09-25T00:23:15.339Z,58.48
2018-09-25T00:24:15.302Z,58.89
2018-09-25T00:25:15.292Z,59.19
2018-09-25T00:26:15.282Z,58.69
2018-09-25T00:27:15.272Z,58.07
2018-09-25T00:28:15.285Z,58.48
2018-09-25T00:29:15.248Z,58.69
2018-09-25T00:30:15.236Z,58.71
2018-09-25T00:31:15.227Z,58.99
2018-09-25T00:32:15.216Z,58.81
2018-09-25T00:33:15.227Z,58.51
2018-09-25T00:34:15.192Z,58.71
2018-09-25T00:35:15.183Z,58.61
2018-09-25T00:36:15.171Z,59.32
2018-09-25T00:37:15.160Z,59.22
2018-09-25T00:38:15.171Z,59.22
2018-09-25T00:39:15.136Z,59.12
2018-09-25T00:40:15.126Z,59.52
2018-09-25T00:41:15.117Z,59.52
2018-09-25T00:42:15.103Z,60.23
2018-09-25T00:43:15.117Z,58.61
2018-09-25T00:44:15.083Z,58.81
2018-09-25T00:45:15.071Z,58.92
2018-09-25T00:46:15.058Z,59.12
2018-09-25T00:47:15.048Z,60.13
2018-09-25T00:48:15.061Z,59.83
2018-09-25T00:49:15.025Z,60.33
2018-09-25T00:50:15.019Z,59.92
2018-09-25T00:51:15.001Z,59.42
2018-09-25T00:52:14.991Z,59.63
2018-09-25T00:53:15.005Z,59.72
2018-09-25T00:54:14.974Z,59.63
2018-09-25T00:55:14.965Z,60.74
2018-09-25T00:56:14.947Z,60.33
2018-09-25T00:57:14.940Z,60.23
2018-09-25T00:58:14.949Z,59.63
2018-09-25T00:59:14.913Z,59.12
2018-09-25T01:00:14.901Z,59.32
2018-09-25T01:01:14.891Z,59.52
2018-09-25T01:02:14.879Z,59.52
2018-09-25T01:03:14.872Z,59.63
2018-09-25T01:04:14.881Z,59.12
2018-09-25T01:05:14.846Z,59.12
2018-09-25T01:06:14.835Z,59.12
2018-09-25T01:07:14.833Z,59.22
2018-09-25T01:08:14.814Z,59.22
2018-09-25T01:09:14.825Z,58.94
2018-09-25T01:10:14.793Z,59.14
2018-09-25T01:11:14.780Z,59.65
2018-09-25T01:12:14.768Z,59.75
2018-09-25T01:13:14.759Z,59.55
2018-09-25T01:14:14.771Z,59.55
2018-09-25T01:15:14.734Z,59.55
2018-09-25T01:16:14.723Z,59.55
2018-09-25T01:17:14.714Z,59.45
2018-09-25T01:18:14.702Z,59.45
2018-09-25T01:19:14.737Z,59.55
2018-09-25T01:20:14.680Z,59.45
2018-09-25T01:21:14.670Z,59.17
2018-09-25T01:22:14.658Z,58.94
2018-09-25T01:23:14.651Z,59.48
2018-09-25T01:24:14.659Z,59.38
2018-09-25T01:25:14.622Z,59.48
2018-09-25T01:26:14.611Z,59.48
2018-09-25T01:27:14.601Z,59.68
2018-09-25T01:28:14.590Z,59.78
2018-09-25T01:29:14.603Z,59.68
2018-09-25T01:30:14.570Z,59.38
2018-09-25T01:31:14.555Z,60.08
2018-09-25T01:32:14.545Z,59.58
2018-09-25T01:33:14.535Z,59.68
2018-09-25T01:34:14.547Z,59.61
2018-09-25T01:35:14.511Z,59.48
2018-09-25T01:36:14.499Z,59.61
2018-09-25T01:37:14.490Z,59.81
2018-09-25T01:38:14.477Z,59.27
2018-09-25T01:39:14.492Z,59.61
2018-09-25T01:40:14.456Z,59.20
2018-09-25T01:41:14.444Z,59.20
2018-09-25T01:42:14.433Z,59.58
2018-09-25T01:43:14.423Z,59.41
2018-09-25T01:44:14.438Z,59.41
2018-09-25T01:45:14.400Z,60.31
2018-09-25T01:46:14.388Z,59.20
2018-09-25T01:47:14.379Z,59.61
2018-09-25T01:48:14.368Z,59.61
2018-09-25T01:49:14.421Z,59.41
2018-09-25T01:50:14.344Z,59.50
2018-09-25T01:51:14.332Z,59.81
2018-09-25T01:52:14.322Z,59.53
2018-09-25T01:53:14.311Z,59.12
2018-09-25T01:54:14.323Z,59.84
2018-09-25T01:55:14.288Z,59.63
2018-09-25T01:56:14.277Z,59.23
2018-09-25T01:57:14.266Z,59.63
2018-09-25T01:58:14.253Z,60.14
2018-09-25T01:59:14.266Z,59.63
2018-09-25T02:00:14.233Z,59.74
2018-09-25T02:01:14.221Z,60.14
2018-09-25T02:02:14.211Z,60.35
2018-09-25T02:03:14.199Z,59.53
2018-09-25T02:04:14.211Z,59.74
2018-09-25T02:05:14.175Z,60.55
2018-09-25T02:06:14.168Z,60.07
2018-09-25T02:07:14.154Z,60.04
2018-09-25T02:08:14.154Z,60.55
2018-09-25T02:09:14.155Z,60.44
2018-09-25T02:10:14.122Z,59.66
2018-09-25T02:11:14.109Z,59.84
2018-09-25T02:12:14.097Z,59.97
2018-09-25T02:13:14.088Z,60.98
2018-09-25T02:14:14.099Z,59.94
2018-09-25T02:15:14.068Z,60.58
2018-09-25T02:16:14.053Z,59.77
2018-09-25T02:17:14.042Z,60.04
2018-09-25T02:18:14.032Z,60.04
2018-09-25T02:19:14.044Z,60.24
2018-09-25T02:20:14.009Z,60.88
2018-09-25T02:21:13.997Z,60.37
2018-09-25T02:22:13.987Z,60.27
2018-09-25T02:23:13.975Z,59.77
2018-09-25T02:24:13.990Z,59.77
2018-09-25T02:25:13.953Z,59.53
2018-09-25T02:26:13.943Z,59.66
2018-09-25T02:27:13.930Z,59.97
2018-09-25T02:28:13.919Z,60.27
2018-09-25T02:29:13.932Z,59.86
2018-09-25T02:30:13.899Z,60.07
2018-09-25T02:31:13.891Z,60.07
2018-09-25T02:32:13.875Z,60.47
2018-09-25T02:33:13.866Z,60.37
2018-09-25T02:34:13.885Z,60.07
2018-09-25T02:35:13.840Z,59.97
2018-09-25T02:36:13.831Z,59.99
2018-09-25T02:37:13.819Z,60.27
2018-09-25T02:38:13.809Z,59.99
2018-09-25T02:39:13.824Z,60.47
2018-09-25T02:40:13.784Z,60.50
2018-09-25T02:41:13.777Z,60.20
2018-09-25T02:42:13.764Z,59.99
2018-09-25T02:43:13.751Z,60.50
2018-09-25T02:44:13.764Z,60.17
2018-09-25T02:45:13.732Z,59.86
2018-09-25T02:46:13.718Z,60.91
2018-09-25T02:47:13.706Z,60.20
2018-09-25T02:48:13.696Z,59.99
2018-09-25T02:49:13.687Z,60.37
2018-09-25T02:50:13.698Z,60.40
2018-09-25T02:51:13.664Z,60.40
2018-09-25T02:52:13.651Z,60.20
2018-09-25T02:53:13.639Z,59.99
2018-09-25T02:54:13.653Z,60.20
2018-09-25T02:55:13.618Z,59.99
2018-09-25T02:56:13.608Z,60.40
2018-09-25T02:57:13.600Z,60.50
2018-09-25T02:58:13.584Z,60.60
2018-09-25T02:59:13.576Z,60.50
2018-09-25T03:00:13.587Z,60.71
2018-09-25T03:01:13.549Z,60.20
2018-09-25T03:02:13.541Z,59.59
2018-09-25T03:03:13.571Z,59.99
2018-09-25T03:04:13.521Z,59.59
2018-09-25T03:05:13.530Z,59.79
2018-09-25T03:06:13.494Z,59.89
2018-09-25T03:07:13.484Z,59.89
2018-09-25T03:08:13.472Z,59.69
2018-09-25T03:09:13.469Z,59.59
2018-09-25T03:10:13.476Z,60.20
2018-09-25T03:11:13.438Z,60.30
2018-09-25T03:12:13.426Z,60.40
2018-09-25T03:13:13.416Z,61.01
2018-09-25T03:14:13.404Z,60.30
2018-09-25T03:15:13.456Z,60.33
2018-09-25T03:16:13.382Z,60.40
2018-09-25T03:17:13.374Z,60.33
2018-09-25T03:18:13.362Z,60.53
2018-09-25T03:19:13.359Z,61.04
2018-09-25T03:20:13.362Z,59.82
2018-09-25T03:21:13.327Z,60.53
2018-09-25T03:22:13.316Z,60.53
2018-09-25T03:23:13.305Z,60.22
2018-09-25T03:24:13.293Z,60.02
2018-09-25T03:25:13.316Z,60.83
2018-09-25T03:26:13.270Z,61.14
2018-09-25T03:27:13.260Z,60.74
2018-09-25T03:28:13.249Z,61.14
2018-09-25T03:29:13.237Z,60.74
2018-09-25T03:30:13.249Z,60.94
2018-09-25T03:31:13.216Z,61.24
2018-09-25T03:32:13.203Z,60.43
2018-09-25T03:33:13.192Z,61.41
2018-09-25T03:34:13.183Z,61.52
2018-09-25T03:35:13.196Z,61.82
2018-09-25T03:36:13.160Z,61.01
2018-09-25T03:37:13.148Z,61.34
2018-09-25T03:38:13.136Z,60.91
2018-09-25T03:39:13.128Z,61.72
2018-09-25T03:40:13.138Z,62.74
2018-09-25T03:41:13.102Z,62.02
2018-09-25T03:42:13.092Z,61.82
2018-09-25T03:43:13.079Z,62.63
2018-09-25T03:44:13.070Z,61.52
2018-09-25T03:45:13.083Z,61.01
2018-09-25T03:46:13.048Z,61.62
2018-09-25T03:47:13.036Z,61.93
2018-09-25T03:48:13.025Z,61.93
2018-09-25T03:49:13.013Z,61.41
2018-09-25T03:50:13.027Z,61.21
2018-09-25T03:51:12.994Z,61.21
2018-09-25T03:52:12.981Z,61.18
2018-09-25T03:53:12.970Z,61.21
2018-09-25T03:54:12.962Z,61.32
2018-09-25T03:55:12.971Z,60.91
2018-09-25T03:56:12.935Z,61.21
2018-09-25T03:57:12.925Z,61.01
2018-09-25T03:58:12.916Z,60.40
2018-09-25T03:59:12.903Z,61.01
2018-09-25T04:00:12.919Z,60.10
2018-09-25T04:01:12.881Z,60.91
2018-09-25T04:02:12.868Z,61.41
2018-09-25T04:03:12.863Z,61.41
2018-09-25T04:04:12.847Z,61.41
2018-09-25T04:05:12.859Z,61.52
2018-09-25T04:06:12.886Z,61.62
2018-09-25T04:07:12.814Z,61.52
2018-09-25T04:08:12.801Z,61.62
2018-09-25T04:09:12.790Z,61.52
2018-09-25T04:10:16.826Z,61.32
2018-09-25T04:11:12.767Z,62.53
2018-09-25T04:12:12.757Z,61.59
2018-09-25T04:13:12.745Z,61.41
2018-09-25T04:14:12.735Z,61.39
2018-09-25T04:15:12.747Z,61.52
2018-09-25T04:16:12.711Z,61.18
2018-09-25T04:17:12.701Z,61.69
2018-09-25T04:18:12.690Z,61.18
2018-09-25T04:19:12.685Z,61.49
2018-09-25T04:20:12.692Z,60.68
2018-09-25T04:21:12.658Z,61.18
2018-09-25T04:22:12.645Z,60.17
2018-09-25T04:23:12.633Z,60.27
2018-09-25T04:24:12.623Z,61.39
2018-09-25T04:25:12.613Z,61.08
2018-09-25T04:26:12.624Z,59.97
2018-09-25T04:27:12.589Z,61.29
2018-09-25T04:28:12.578Z,61.29
2018-09-25T04:29:12.569Z,60.68
2018-09-25T04:30:12.581Z,61.49
2018-09-25T04:31:12.544Z,60.78
2018-09-25T04:32:12.533Z,61.18
2018-09-25T04:33:12.528Z,61.08
2018-09-25T04:34:12.510Z,60.78
2018-09-25T04:35:12.502Z,61.39
2018-09-25T04:36:12.513Z,61.39
2018-09-25T04:37:12.517Z,61.39
2018-09-25T04:38:12.465Z,60.78
2018-09-25T04:39:12.462Z,60.37
2018-09-25T04:40:12.445Z,61.18
2018-09-25T04:41:12.458Z,59.97
2018-09-25T04:42:12.421Z,61.18
2018-09-25T04:43:12.410Z,61.59
2018-09-25T04:44:12.399Z,61.69
2018-09-25T04:45:12.390Z,61.08
2018-09-25T04:46:12.403Z,60.98
2018-09-25T04:47:12.364Z,61.49
2018-09-25T04:48:12.392Z,61.49
2018-09-25T04:49:12.342Z,61.59
2018-09-25T04:50:12.332Z,61.29
2018-09-25T04:51:12.345Z,61.39
2018-09-25T04:52:12.309Z,61.32
2018-09-25T04:53:12.297Z,61.39
2018-09-25T04:54:12.286Z,61.79
2018-09-25T04:55:12.277Z,61.18
2018-09-25T04:56:12.288Z,61.49
2018-09-25T04:57:12.256Z,61.49
2018-09-25T04:58:12.243Z,61.29
2018-09-25T04:59:12.232Z,60.98
2018-09-25T05:00:12.221Z,60.88
2018-09-25T05:01:12.235Z,61.69
2018-09-25T05:02:12.196Z,60.78
2018-09-25T05:03:12.187Z,61.29
2018-09-25T05:04:12.176Z,61.49
2018-09-25T05:05:12.165Z,61.29
2018-09-25T05:06:12.179Z,61.59
2018-09-25T05:07:12.142Z,60.95
2018-09-25T05:08:12.132Z,61.79
2018-09-25T05:09:12.120Z,61.39
2018-09-25T05:10:12.109Z,61.25
2018-09-25T05:11:17.163Z,61.49
2018-09-25T05:12:12.168Z,61.18
2018-09-25T05:13:12.077Z,61.08
2018-09-25T05:14:12.063Z,61.90
2018-09-25T05:15:12.055Z,61.49
2018-09-25T05:16:12.063Z,61.39
2018-09-25T05:17:12.031Z,61.49
2018-09-25T05:18:12.107Z,60.88
2018-09-25T05:19:12.007Z,61.90
2018-09-25T05:20:11.998Z,60.98
2018-09-25T05:21:12.009Z,61.18
2018-09-25T05:22:11.975Z,60.98
2018-09-25T05:23:11.972Z,61.39
2018-09-25T05:24:11.952Z,60.88
2018-09-25T05:25:11.940Z,61.08
2018-09-25T05:26:11.953Z,61.39
2018-09-25T05:27:11.919Z,61.46
2018-09-25T05:28:11.905Z,61.36
2018-09-25T05:29:11.897Z,60.85
2018-09-25T05:30:11.884Z,61.76
2018-09-25T05:31:11.899Z,61.79
2018-09-25T05:32:11.865Z,61.16
2018-09-25T05:33:11.852Z,61.36
2018-09-25T05:34:11.839Z,61.08
2018-09-25T05:35:11.828Z,61.90
2018-09-25T05:36:11.840Z,61.46
2018-09-25T05:37:11.808Z,61.46
2018-09-25T05:38:11.796Z,61.29
2018-09-25T05:39:11.783Z,60.55
2018-09-25T05:40:11.773Z,60.04
2018-09-25T05:41:11.785Z,60.07
2018-09-25T05:42:11.751Z,61.25
2018-09-25T05:43:11.740Z,61.08
2018-09-25T05:44:11.729Z,60.95
2018-09-25T05:45:11.716Z,60.55
2018-09-25T05:46:11.730Z,60.58
2018-09-25T05:47:11.697Z,60.98
2018-09-25T05:48:11.711Z,60.47
2018-09-25T05:49:11.673Z,60.95
2018-09-25T05:50:11.663Z,60.65
2018-09-25T05:51:11.674Z,61.46
2018-09-25T05:52:11.639Z,60.24
2018-09-25T05:53:11.628Z,60.88
2018-09-25T05:54:11.616Z,60.95
2018-09-25T05:55:11.604Z,61.18
2018-09-25T05:56:11.617Z,61.46
2018-09-25T05:57:11.585Z,62.40
2018-09-25T05:58:11.570Z,62.57
2018-09-25T05:59:11.560Z,61.94
2018-09-25T06:00:11.551Z,62.21
2018-09-25T06:01:11.561Z,61.10
2018-09-25T06:02:11.526Z,60.49
2018-09-25T06:03:11.516Z,60.26
2018-09-25T06:04:11.506Z,60.26
2018-09-25T06:05:11.496Z,59.95
2018-09-25T06:06:11.507Z,59.34
2018-09-25T06:07:11.474Z,59.32
2018-09-25T06:08:11.460Z,59.22
2018-09-25T06:09:11.469Z,58.81
2018-09-25T06:10:11.441Z,58.78
2018-09-25T06:11:11.428Z,58.18
2018-09-25T06:12:11.439Z,57.98
2018-09-25T06:13:11.404Z,57.78
2018-09-25T06:14:11.395Z,57.37
2018-09-25T06:15:11.382Z,57.85
2018-09-25T06:16:11.375Z,57.21
2018-09-25T06:17:11.384Z,57.04
2018-09-25T06:18:11.350Z,57.04
2018-09-25T06:19:11.337Z,56.71
2018-09-25T06:20:11.325Z,56.81
2018-09-25T06:21:11.318Z,56.40
2018-09-25T06:22:11.327Z,56.61
2018-09-25T06:23:11.294Z,56.58
2018-09-25T06:24:11.283Z,55.67
2018-09-25T06:25:11.270Z,56.07
2018-09-25T06:26:11.261Z,56.07
2018-09-25T06:27:11.270Z,55.87
2018-09-25T06:28:11.235Z,56.18
2018-09-25T06:29:11.225Z,56.27
2018-09-25T06:30:11.217Z,55.36
2018-09-25T06:31:11.244Z,55.36
2018-09-25T06:32:11.191Z,55.57
2018-09-25T06:33:11.185Z,55.74
2018-09-25T06:34:11.170Z,55.24
2018-09-25T06:35:11.159Z,54.03
2018-09-25T06:36:11.146Z,55.34
2018-09-25T06:37:11.203Z,55.14
2018-09-25T06:38:11.125Z,53.93
2018-09-25T06:39:11.112Z,53.22
2018-09-25T06:40:11.102Z,51.81
2018-09-25T06:41:11.109Z,51.61
2018-09-25T06:42:11.104Z,53.45
2018-09-25T06:43:11.068Z,55.47
2018-09-25T06:44:11.057Z,55.36
2018-09-25T06:45:11.049Z,55.04
2018-09-25T06:46:11.041Z,55.16
2018-09-25T06:47:11.050Z,55.54
2018-09-25T06:48:11.020Z,55.67
2018-09-25T06:49:11.002Z,55.24
2018-09-25T06:50:10.990Z,55.04
2018-09-25T06:51:10.979Z,55.34
2018-09-25T06:52:10.994Z,55.14
2018-09-25T06:53:10.957Z,54.83
2018-09-25T06:54:10.947Z,54.74
2018-09-25T06:55:10.980Z,55.04
2018-09-25T06:56:10.923Z,55.04
2018-09-25T06:57:10.936Z,55.44
2018-09-25T06:58:10.901Z,55.01
2018-09-25T06:59:10.911Z,54.74
2018-09-25T07:00:10.879Z,54.91
2018-09-25T07:01:10.868Z,54.83
2018-09-25T07:02:10.881Z,54.51
2018-09-25T07:03:10.849Z,54.31
2018-09-25T07:04:10.833Z,54.81
2018-09-25T07:05:10.823Z,54.61
2018-09-25T07:06:10.811Z,54.51
2018-09-25T07:07:10.823Z,53.90
2018-09-25T07:08:10.793Z,53.90
2018-09-25T07:09:10.789Z,54.10
2018-09-25T07:10:10.908Z,54.10
2018-09-25T07:11:10.755Z,54.10
2018-09-25T07:12:10.768Z,53.90
2018-09-25T07:13:10.732Z,54.10
2018-09-25T07:14:10.723Z,53.90
2018-09-25T07:15:10.711Z,54.61
2018-09-25T07:16:10.702Z,54.61
2018-09-25T07:17:10.712Z,53.78
2018-09-25T07:18:10.677Z,50.29
2018-09-25T07:19:10.666Z,51.76
2018-09-25T07:20:10.655Z,53.52
2018-09-25T07:21:10.645Z,54.82
2018-09-25T07:22:10.657Z,55.78
2018-09-25T07:23:10.621Z,58.09
2018-09-25T07:24:10.614Z,60.49
2018-09-25T07:25:10.778Z,62.04
2018-09-25T07:26:10.589Z,64.92
2018-09-25T07:27:10.604Z,66.61
2018-09-25T07:28:10.566Z,66.99
2018-09-25T07:29:10.556Z,66.35
2018-09-25T07:30:10.543Z,65.94
2018-09-25T07:31:10.647Z,66.08
2018-09-25T07:32:10.547Z,65.17
2018-09-25T07:33:10.509Z,63.72
2018-09-25T07:34:10.500Z,63.49
2018-09-25T07:35:10.491Z,62.65
2018-09-25T07:36:10.476Z,62.41
2018-09-25T07:37:10.487Z,61.68
2018-09-25T07:38:10.455Z,61.37
2018-09-25T07:39:10.445Z,59.32
2018-09-25T07:40:10.431Z,55.27
2018-09-25T07:41:10.420Z,58.45
2018-09-25T07:42:10.437Z,63.35
2018-09-25T07:43:10.399Z,65.72
2018-09-25T07:44:10.387Z,66.27
2018-09-25T07:45:10.376Z,65.95
2018-09-25T07:46:10.364Z,66.67
2018-09-25T07:47:10.376Z,66.39
2018-09-25T07:48:10.369Z,66.60
2018-09-25T07:49:10.331Z,66.39
2018-09-25T07:50:10.320Z,67.82
2018-09-25T07:51:10.309Z,67.76
2018-09-25T07:52:10.309Z,67.43
2018-09-25T07:53:10.309Z,67.39
2018-09-25T07:54:10.274Z,67.66
2018-09-25T07:55:10.263Z,66.82
2018-09-25T07:56:10.251Z,66.08
2018-09-25T07:57:10.265Z,65.84
2018-09-25T07:58:10.230Z,64.49
2018-09-25T07:59:10.219Z,63.75
2018-09-25T08:00:10.208Z,63.01
2018-09-25T08:01:10.197Z,61.99
2018-09-25T08:02:10.189Z,61.66
2018-09-25T08:03:10.236Z,61.43
2018-09-25T08:04:10.163Z,60.69
2018-09-25T08:05:10.153Z,60.69
2018-09-25T08:06:10.141Z,59.45
2018-09-25T08:07:10.131Z,58.94
2018-09-25T08:08:10.142Z,59.22
2018-09-25T08:09:10.121Z,59.01
2018-09-25T08:10:10.096Z,58.41
2018-09-25T08:11:10.085Z,58.18
2018-09-25T08:12:10.076Z,57.87
2018-09-25T08:13:10.086Z,58.18
2018-09-25T08:14:10.053Z,58.05
2018-09-25T08:15:10.040Z,57.75
2018-09-25T08:16:10.029Z,57.14
2018-09-25T08:17:10.017Z,57.14
2018-09-25T08:18:10.032Z,56.91
2018-09-25T08:19:09.996Z,57.01
2018-09-25T08:20:09.985Z,53.80
2018-09-25T08:21:09.973Z,52.59
2018-09-25T08:22:09.962Z,52.11
2018-09-25T08:23:09.974Z,54.08
2018-09-25T08:24:09.942Z,55.73
2018-09-25T08:25:09.930Z,55.83
2018-09-25T08:26:09.918Z,56.34
2018-09-25T08:27:09.906Z,57.86
2018-09-25T08:28:09.918Z,57.93
2018-09-25T08:29:09.884Z,57.83
2018-09-25T08:30:09.875Z,57.93
2018-09-25T08:31:09.913Z,58.20
2018-09-25T08:32:09.850Z,58.11
2018-09-25T08:33:09.863Z,58.81
2018-09-25T08:34:09.841Z,58.31
2018-09-25T08:35:09.816Z,58.18
2018-09-25T08:36:09.806Z,58.05
2018-09-25T08:37:09.794Z,57.54
2018-09-25T08:38:09.807Z,57.34
2018-09-25T08:39:09.872Z,57.44
2018-09-25T08:40:09.764Z,57.34
2018-09-25T08:41:09.750Z,57.21
2018-09-25T08:42:09.741Z,55.69
2018-09-25T08:43:09.749Z,55.19
2018-09-25T08:44:09.715Z,55.98
2018-09-25T08:45:09.705Z,56.07
2018-09-25T08:46:09.694Z,55.98
2018-09-25T08:47:09.682Z,55.16
2018-09-25T08:48:09.695Z,54.46
2018-09-25T08:49:09.660Z,53.65
2018-09-25T08:50:09.648Z,53.63
2018-09-25T08:51:09.637Z,53.52
2018-09-25T08:52:09.628Z,54.43
2018-09-25T08:53:09.641Z,54.74
2018-09-25T08:54:09.603Z,55.04
2018-09-25T08:55:09.592Z,55.04
2018-09-25T08:56:09.582Z,54.74
2018-09-25T08:57:09.571Z,54.33
2018-09-25T08:58:09.584Z,54.13
2018-09-25T08:59:09.548Z,53.42
2018-09-25T09:00:09.538Z,52.79
2018-09-25T09:01:09.527Z,53.20
2018-09-25T09:02:09.516Z,52.89
2018-09-25T09:03:09.527Z,52.69
2018-09-25T09:04:09.501Z,52.69
2018-09-25T09:05:09.481Z,52.69
2018-09-25T09:06:09.470Z,52.59
2018-09-25T09:07:09.460Z,52.59
2018-09-25T09:08:09.527Z,52.39
2018-09-25T09:09:09.436Z,52.69
2018-09-25T09:10:09.425Z,52.09
2018-09-25T09:11:09.419Z,52.69
2018-09-25T09:12:09.459Z,52.59
2018-09-25T09:13:09.415Z,52.39
2018-09-25T09:14:09.381Z,52.69
2018-09-25T09:15:09.378Z,53.50
2018-09-25T09:16:09.361Z,53.50
2018-09-25T09:17:09.350Z,53.50
2018-09-25T09:18:09.366Z,53.40
2018-09-25T09:19:09.340Z,53.40
2018-09-25T09:20:09.368Z,53.70
2018-09-25T09:21:09.315Z,53.88
2018-09-25T09:22:09.291Z,53.38
2018-09-25T09:23:09.311Z,53.47
2018-09-25T09:24:09.270Z,53.47
2018-09-25T09:25:09.300Z,53.27
2018-09-25T09:26:09.246Z,53.17
2018-09-25T09:27:09.235Z,53.38
2018-09-25T09:28:09.249Z,53.58
2018-09-25T09:29:09.212Z,52.76
2018-09-25T09:30:09.201Z,53.14
2018-09-25T09:31:09.191Z,53.14
2018-09-25T09:32:09.186Z,52.94
2018-09-25T09:33:09.195Z,53.25
2018-09-25T09:34:09.157Z,52.74
2018-09-25T09:35:09.145Z,53.25
2018-09-25T09:36:09.137Z,52.92
2018-09-25T09:37:09.124Z,50.02
2018-09-25T09:38:09.115Z,52.04
2018-09-25T09:39:09.126Z,52.84
2018-09-25T09:40:09.091Z,53.27
2018-09-25T09:41:09.120Z,53.58
2018-09-25T09:42:09.070Z,53.34
2018-09-25T09:43:09.060Z,52.94
2018-09-25T09:44:09.071Z,53.25
2018-09-25T09:45:09.038Z,53.55
2018-09-25T09:46:09.024Z,53.14
2018-09-25T09:47:09.012Z,52.94
2018-09-25T09:48:09.003Z,52.92
2018-09-25T09:49:09.015Z,53.05
2018-09-25T09:50:08.980Z,53.05
2018-09-25T09:51:08.969Z,52.92
2018-09-25T09:52:08.956Z,52.72
2018-09-25T09:53:08.949Z,52.51
2018-09-25T09:54:08.960Z,52.51
2018-09-25T09:55:08.924Z,52.72
2018-09-25T09:56:08.913Z,51.71
2018-09-25T09:57:08.902Z,52.31
2018-09-25T09:58:08.997Z,52.51
2018-09-25T09:59:08.902Z,53.02
2018-09-25T10:00:08.868Z,52.31
2018-09-25T10:01:08.857Z,52.72
2018-09-25T10:02:08.846Z,52.42
2018-09-25T10:03:08.836Z,52.19
2018-09-25T10:04:08.848Z,50.57
2018-09-25T10:05:08.812Z,51.89
2018-09-25T10:06:08.802Z,52.39
2018-09-25T10:07:08.820Z,52.19
2018-09-25T10:08:08.781Z,52.69
2018-09-25T10:09:08.792Z,53.00
2018-09-25T10:10:08.755Z,52.89
2018-09-25T10:11:08.746Z,51.89
2018-09-25T10:12:08.735Z,52.09
2018-09-25T10:13:08.723Z,53.00
2018-09-25T10:14:08.736Z,52.26
2018-09-25T10:15:08.701Z,52.49
2018-09-25T10:16:08.689Z,51.18
2018-09-25T10:17:08.679Z,49.67
2018-09-25T10:18:08.670Z,52.29
2018-09-25T10:19:08.681Z,52.69
2018-09-25T10:20:08.646Z,52.92
2018-09-25T10:21:08.639Z,52.89
2018-09-25T10:22:08.623Z,52.89
2018-09-25T10:23:08.612Z,52.69
2018-09-25T10:24:08.625Z,53.00
2018-09-25T10:25:08.589Z,52.89
2018-09-25T10:26:08.579Z,52.09
2018-09-25T10:27:08.570Z,51.99
2018-09-25T10:28:08.560Z,52.69
2018-09-25T10:29:08.569Z,52.49
2018-09-25T10:30:08.536Z,52.17
2018-09-25T10:31:08.525Z,52.26
2018-09-25T10:32:08.563Z,52.06
2018-09-25T10:33:08.503Z,52.26
2018-09-25T10:34:08.586Z,52.17
2018-09-25T10:35:08.479Z,43.73
2018-09-25T10:36:08.468Z,43.24
2018-09-25T10:37:08.456Z,42.96
2018-09-25T10:38:08.449Z,44.42
2018-09-25T10:39:08.459Z,44.23
2018-09-25T10:40:08.426Z,45.06
2018-09-25T10:41:08.542Z,46.91
2018-09-25T10:42:08.404Z,47.03
2018-09-25T10:43:08.391Z,48.26
2018-09-25T10:44:08.403Z,48.26
2018-09-25T10:45:08.367Z,48.79
2018-09-25T10:46:08.357Z,48.79
2018-09-25T10:47:08.346Z,48.91
2018-09-25T10:48:08.344Z,48.94
2018-09-25T10:49:08.348Z,49.87
2018-09-25T10:50:08.321Z,53.02
2018-09-25T10:51:08.302Z,52.64
2018-09-25T10:52:08.290Z,52.23
2018-09-25T10:53:08.281Z,55.65
2018-09-25T10:54:08.291Z,55.35
2018-09-25T10:55:08.257Z,55.63
2018-09-25T10:56:08.380Z,56.51
2018-09-25T10:57:08.237Z,56.69
2018-09-25T10:58:08.223Z,55.57
2018-09-25T10:59:08.235Z,50.69
2018-09-25T11:00:08.205Z,53.40
2018-09-25T11:01:08.190Z,54.49
2018-09-25T11:02:08.179Z,54.08
2018-09-25T11:03:08.398Z,54.46
2018-09-25T11:04:08.181Z,53.45
2018-09-25T11:05:08.145Z,53.55
2018-09-25T11:06:08.137Z,52.82
2018-09-25T11:07:08.127Z,52.39
2018-09-25T11:08:08.113Z,51.78
2018-09-25T11:09:08.129Z,52.76
2018-09-25T11:10:08.116Z,52.87
2018-09-25T11:11:08.085Z,51.45
2018-09-25T11:12:08.069Z,51.84
2018-09-25T11:13:08.064Z,52.04
2018-09-25T11:14:08.085Z,51.03
2018-09-25T11:15:08.041Z,51.20
2018-09-25T11:16:08.024Z,50.80
2018-09-25T11:17:08.023Z,51.10
2018-09-25T11:18:08.000Z,51.28
2018-09-25T11:19:07.996Z,51.28
2018-09-25T11:20:08.004Z,50.88
2018-09-25T11:21:07.970Z,50.98
2018-09-25T11:22:07.970Z,51.59
2018-09-25T11:23:07.950Z,50.98
2018-09-25T11:24:07.938Z,50.35
2018-09-25T11:25:07.949Z,50.25
2018-09-25T11:26:07.913Z,50.45
2018-09-25T11:27:07.903Z,50.15
2018-09-25T11:28:07.890Z,50.35
2018-09-25T11:29:07.908Z,50.25
2018-09-25T11:30:07.869Z,50.15
2018-09-25T11:31:07.857Z,50.33
2018-09-25T11:32:07.845Z,50.33
2018-09-25T11:33:07.836Z,49.73
2018-09-25T11:34:07.847Z,49.73
2018-09-25T11:35:07.868Z,49.93
2018-09-25T11:36:07.802Z,49.93
2018-09-25T11:37:07.789Z,49.52
2018-09-25T11:38:07.779Z,50.02
2018-09-25T11:39:07.771Z,49.90
2018-09-25T11:40:07.781Z,49.70
2018-09-25T11:41:07.755Z,49.19
2018-09-25T11:42:07.736Z,50.00
2018-09-25T11:43:07.723Z,49.40
2018-09-25T11:44:07.716Z,49.30
2018-09-25T11:45:07.725Z,49.27
2018-09-25T11:46:07.695Z,48.49
2018-09-25T11:47:07.730Z,49.10
2018-09-25T11:48:07.719Z,48.87
2018-09-25T11:49:07.660Z,49.18
2018-09-25T11:50:07.670Z,48.77
2018-09-25T11:51:07.638Z,48.67
2018-09-25T11:52:07.624Z,48.87
2018-09-25T11:53:07.612Z,48.77
2018-09-25T11:54:07.607Z,49.18
2018-09-25T11:55:07.626Z,49.07
2018-09-25T11:56:07.579Z,48.47
2018-09-25T11:57:07.568Z,48.77
2018-09-25T11:58:07.556Z,48.37
2018-09-25T11:59:07.549Z,48.87
2018-09-25T12:00:07.558Z,47.66
2018-09-25T12:01:07.525Z,48.87
2018-09-25T12:02:07.567Z,47.86
2018-09-25T12:03:07.501Z,47.97
2018-09-25T12:04:07.491Z,48.57
2018-09-25T12:05:07.503Z,47.85
2018-09-25T12:06:07.469Z,47.74
2018-09-25T12:07:07.458Z,47.94
2018-09-25T12:08:07.446Z,47.14
2018-09-25T12:09:07.436Z,46.94
2018-09-25T12:10:07.447Z,47.34
2018-09-25T12:11:07.413Z,47.22
2018-09-25T12:12:07.401Z,46.84
2018-09-25T12:13:07.391Z,47.64
2018-09-25T12:14:07.380Z,46.54
2018-09-25T12:15:07.392Z,47.02
2018-09-25T12:16:07.358Z,47.44
2018-09-25T12:17:07.345Z,46.72
2018-09-25T12:18:07.335Z,45.61
2018-09-25T12:19:07.325Z,45.41
2018-09-25T12:20:07.336Z,42.69
2018-09-25T12:21:07.301Z,40.89
2018-09-25T12:22:07.289Z,39.98
2018-09-25T12:23:07.280Z,39.18
2018-09-25T12:24:07.267Z,38.07
2018-09-25T12:25:07.280Z,39.18
2018-09-25T12:26:07.245Z,38.28
2018-09-25T12:27:07.234Z,38.76
2018-09-25T12:28:07.225Z,38.56
2018-09-25T12:29:07.213Z,38.16
2018-09-25T12:30:07.223Z,38.54
2018-09-25T12:31:07.190Z,39.04
2018-09-25T12:32:07.178Z,40.45
2018-09-25T12:33:07.271Z,38.44
2018-09-25T12:34:07.156Z,40.15
2018-09-25T12:35:07.169Z,40.13
2018-09-25T12:36:07.134Z,40.43
2018-09-25T12:37:07.126Z,39.42
2018-09-25T12:38:07.112Z,39.23
2018-09-25T12:39:07.100Z,39.03
2018-09-25T12:40:07.119Z,39.53
2018-09-25T12:41:07.113Z,38.53
2018-09-25T12:42:07.067Z,38.53
2018-09-25T12:43:07.057Z,39.53
2018-09-25T12:44:07.046Z,38.92
2018-09-25T12:45:07.057Z,39.23
2018-09-25T12:46:07.022Z,39.03
2018-09-25T12:47:07.011Z,40.13
2018-09-25T12:48:07.000Z,38.32
2018-09-25T12:49:06.989Z,38.12
2018-09-25T12:50:07.000Z,38.53
2018-09-25T12:51:06.968Z,38.42
2018-09-25T12:52:06.956Z,37.40